createdAt,value
2024-01-12T00:01:41.448Z,43.05
2024-01-12T00:04:25.383Z,61.05
2024-01-12T00:07:10.475Z,70.15
2024-01-12T00:09:53.239Z,69.68
2024-01-12T00:12:35.891Z,50.10
2024-01-12T00:15:18.366Z,47.17
2024-01-12T00:18:00.702Z,39.60
2024-01-12T00:20:45.292Z,35.22
2024-01-12T00:23:28.073Z,31.25
2024-01-12T00:26:10.740Z,45.75
2024-01-12T00:28:53.208Z,44.22
2024-01-12T00:31:35.673Z,34.65
2024-01-12T00:34:17.890Z,28.02
2024-01-12T00:37:03.869Z,37.78
2024-01-12T00:39:46.115Z,44.00
2024-01-12T00:42:28.868Z,42.67
2024-01-12T00:45:11.386Z,30.98
2024-01-12T00:47:54.354Z,26.92
2024-01-12T00:50:36.749Z,31.67
2024-01-12T00:53:20.356Z,28.17
2024-01-12T00:56:02.815Z,23.67
2024-01-12T00:58:45.370Z,30.85
2024-01-12T01:01:27.685Z,24.25
2024-01-12T01:04:10.319Z,36.95
2024-01-12T01:06:54.004Z,32.92
2024-01-12T01:09:36.651Z,23.50
2024-01-12T01:12:19.696Z,28.88
2024-01-12T01:15:02.329Z,29.02
2024-01-12T01:17:46.971Z,26.77
2024-01-12T01:20:29.630Z,20.63
2024-01-12T01:23:14.980Z,21.65
2024-01-12T01:25:57.565Z,19.70
2024-01-12T01:28:39.820Z,26.23
2024-01-12T01:31:22.529Z,22.80
2024-01-12T01:34:04.892Z,26.63
2024-01-12T01:36:47.552Z,25.73
2024-01-12T01:39:29.775Z,24.73
2024-01-12T01:42:12.260Z,22.60
2024-01-12T01:44:54.502Z,27.92
2024-01-12T01:47:37.225Z,29.48
2024-01-12T01:50:19.549Z,36.33
2024-01-12T01:53:03.808Z,32.22
2024-01-12T01:55:46.839Z,29.15
2024-01-12T01:58:29.958Z,27.25
2024-01-12T02:01:12.535Z,27.00
2024-01-12T02:03:55.662Z,26.90
2024-01-12T02:06:38.822Z,25.52
2024-01-12T02:09:21.989Z,25.27
2024-01-12T02:12:07.439Z,39.83
2024-01-12T02:14:50.151Z,27.65
2024-01-12T02:17:32.543Z,24.65
2024-01-12T02:20:15.283Z,23.83
2024-01-12T02:22:57.461Z,24.83
2024-01-12T02:25:40.083Z,31.48
2024-01-12T02:28:22.788Z,27.10
2024-01-12T02:31:05.541Z,23.70
2024-01-12T02:33:51.148Z,22.60
2024-01-12T02:36:33.716Z,22.98
2024-01-12T02:39:16.134Z,27.50
2024-01-12T02:41:59.004Z,20.15
2024-01-12T02:44:41.399Z,20.20
2024-01-12T02:47:24.056Z,20.00
2024-01-12T02:50:06.812Z,23.58
2024-01-12T02:52:49.457Z,19.17
2024-01-12T02:55:31.781Z,22.48
2024-01-12T02:58:14.908Z,18.00
2024-01-12T03:00:57.242Z,18.65
2024-01-12T03:03:39.876Z,19.88
2024-01-12T03:06:22.560Z,19.58
2024-01-12T03:09:06.087Z,24.10
2024-01-12T03:11:48.378Z,43.17
2024-01-12T03:14:30.910Z,44.53
2024-01-12T03:17:13.192Z,26.23
2024-01-12T03:19:55.766Z,25.02
2024-01-12T03:22:38.170Z,28.98
2024-01-12T03:25:20.656Z,24.63
2024-01-12T03:28:02.860Z,22.25
2024-01-12T03:30:45.509Z,20.63
2024-01-12T03:33:27.961Z,20.85
2024-01-12T03:36:11.193Z,20.67
2024-01-12T03:38:55.768Z,18.95
2024-01-12T03:41:38.432Z,17.58
2024-01-12T03:44:20.734Z,18.25
2024-01-12T03:47:03.374Z,17.38
2024-01-12T03:49:45.886Z,21.17
2024-01-12T03:52:28.526Z,25.92
2024-01-12T03:55:10.748Z,19.42
2024-01-12T03:57:53.392Z,20.33
2024-01-12T04:00:36.309Z,21.42
2024-01-12T04:03:19.057Z,20.42
2024-01-12T04:06:01.584Z,19.17
2024-01-12T04:08:44.163Z,15.93
2024-01-12T04:11:28.010Z,22.45
2024-01-12T04:14:10.526Z,22.80
2024-01-12T04:16:52.736Z,21.60
2024-01-12T04:19:35.360Z,21.77
2024-01-12T04:22:17.658Z,24.20
2024-01-12T04:25:00.316Z,58.70
2024-01-12T04:27:42.516Z,64.07
2024-01-12T04:30:25.081Z,75.75
2024-01-12T04:33:07.482Z,58.45
2024-01-12T04:35:50.266Z,52.08
2024-01-12T04:38:32.655Z,57.38
2024-01-12T04:41:15.297Z,51.67
2024-01-12T04:43:57.615Z,56.00
2024-01-12T04:46:40.823Z,115.55
2024-01-12T04:49:23.434Z,105.03
2024-01-12T04:52:06.557Z,110.80
2024-01-12T04:54:48.764Z,139.48
2024-01-12T04:57:31.328Z,107.45
2024-01-12T05:00:14.221Z,83.05
2024-01-12T05:02:57.261Z,83.70
2024-01-12T05:05:39.767Z,78.97
2024-01-12T05:08:22.511Z,79.60
2024-01-12T05:11:05.347Z,82.00
2024-01-12T05:13:48.014Z,38.78
2024-01-12T05:16:30.397Z,42.88
2024-01-12T05:19:13.307Z,30.77
2024-01-12T05:21:55.711Z,32.72
2024-01-12T05:24:39.128Z,27.73
2024-01-12T05:27:21.457Z,61.45
2024-01-12T05:30:04.893Z,68.85
2024-01-12T05:32:47.449Z,66.80
2024-01-12T05:35:30.020Z,64.68
2024-01-12T05:38:12.238Z,65.65
2024-01-12T05:40:54.829Z,60.28
2024-01-12T05:43:37.531Z,58.25
2024-01-12T05:46:20.576Z,58.15
2024-01-12T05:49:05.801Z,50.75
2024-01-12T05:51:48.908Z,53.53
2024-01-12T05:54:31.244Z,58.70
2024-01-12T05:57:13.931Z,55.95
2024-01-12T05:59:56.848Z,62.92
2024-01-12T06:02:39.592Z,57.85
2024-01-12T06:05:22.461Z,62.30
2024-01-12T06:08:05.661Z,65.60
2024-01-12T06:10:48.299Z,60.05
2024-01-12T06:13:30.994Z,63.97
2024-01-12T06:16:13.198Z,62.90
2024-01-12T06:18:55.806Z,65.57
2024-01-12T06:21:40.244Z,56.15
2024-01-12T06:24:22.994Z,54.38
2024-01-12T06:27:05.903Z,86.93
2024-01-12T06:29:48.862Z,85.53
2024-01-12T06:32:31.095Z,81.05
2024-01-12T06:35:15.250Z,79.82
2024-01-12T06:37:58.597Z,88.70
2024-01-12T06:40:41.196Z,79.30
2024-01-12T06:43:23.405Z,85.03
2024-01-12T06:46:08.969Z,72.60
2024-01-12T06:48:51.242Z,78.10
2024-01-12T06:51:33.818Z,78.28
2024-01-12T06:54:18.178Z,67.63
2024-01-12T06:57:01.033Z,62.25
2024-01-12T06:59:43.442Z,57.13
2024-01-12T07:02:26.086Z,62.70
2024-01-12T07:05:08.945Z,59.92
2024-01-12T07:07:52.352Z,65.75
2024-01-12T07:10:34.721Z,63.92
2024-01-12T07:13:17.382Z,58.33
2024-01-12T07:15:59.672Z,59.40
2024-01-12T07:18:43.951Z,63.80
2024-01-12T07:21:26.331Z,72.25
2024-01-12T07:24:09.145Z,78.75
2024-01-12T07:26:51.585Z,72.78
2024-01-12T07:29:34.581Z,70.82
2024-01-12T07:32:16.923Z,88.22
2024-01-12T07:34:59.624Z,84.90
2024-01-12T07:37:42.517Z,89.90
2024-01-12T07:40:25.141Z,83.97
2024-01-12T07:43:07.425Z,73.30
2024-01-12T07:45:50.604Z,71.88
2024-01-12T07:48:33.046Z,72.63
2024-01-12T07:51:17.012Z,84.38
2024-01-12T07:53:59.474Z,65.30
2024-01-12T07:56:42.236Z,61.88
2024-01-12T07:59:24.583Z,63.88
2024-01-12T08:02:07.586Z,63.92
2024-01-12T08:04:50.645Z,64.47
2024-01-12T08:07:33.257Z,49.85
2024-01-12T08:10:17.196Z,49.72
2024-01-12T08:12:59.985Z,41.45
2024-01-12T08:15:42.283Z,35.03
2024-01-12T08:18:25.678Z,35.38
2024-01-12T08:21:08.858Z,46.33
2024-01-12T08:23:51.711Z,41.83
2024-01-12T08:26:34.160Z,39.53
2024-01-12T08:29:17.375Z,41.13
2024-01-12T08:32:00.504Z,34.22
2024-01-12T08:34:43.300Z,43.05
2024-01-12T08:37:25.721Z,41.20
2024-01-12T08:40:08.754Z,43.30
2024-01-12T08:42:51.024Z,45.85
2024-01-12T08:45:33.675Z,48.60
2024-01-12T08:48:16.212Z,43.70
2024-01-12T08:50:59.796Z,38.38
2024-01-12T08:53:42.330Z,32.35
2024-01-12T08:56:24.960Z,38.00
2024-01-12T08:59:07.301Z,41.05
2024-01-12T09:01:49.883Z,42.83
2024-01-12T09:04:32.852Z,41.78
2024-01-12T09:07:15.774Z,46.92
2024-01-12T09:09:58.881Z,48.58
2024-01-12T09:12:42.348Z,41.20
2024-01-12T09:15:24.620Z,39.22
2024-01-12T09:18:08.208Z,39.75
2024-01-12T09:20:50.984Z,33.42
2024-01-12T09:23:33.663Z,40.95
2024-01-12T09:26:17.246Z,42.40
2024-01-12T09:28:59.907Z,42.00
2024-01-12T09:31:42.295Z,42.60
2024-01-12T09:34:25.089Z,40.13
2024-01-12T09:37:07.455Z,40.67
2024-01-12T09:39:50.061Z,48.55
2024-01-12T09:42:33.562Z,42.20
2024-01-12T09:45:22.382Z,44.88
2024-01-12T09:48:09.672Z,44.78
2024-01-12T09:50:54.829Z,27.83
2024-01-12T09:53:37.544Z,36.80
2024-01-12T09:56:25.812Z,40.22
2024-01-12T09:59:11.223Z,42.17
2024-01-12T10:01:54.166Z,40.80
2024-01-12T10:04:36.538Z,37.35
2024-01-12T10:07:19.325Z,31.15
2024-01-12T10:10:01.710Z,29.35
2024-01-12T10:12:52.178Z,30.95
2024-01-12T10:15:41.261Z,31.60
2024-01-12T10:18:24.052Z,31.10
2024-01-12T10:21:06.760Z,27.58
2024-01-12T10:23:49.481Z,28.60
2024-01-12T10:26:31.827Z,31.92
2024-01-12T10:29:15.584Z,25.83
2024-01-12T10:31:57.970Z,21.13
2024-01-12T10:34:41.120Z,16.88
2024-01-12T10:37:24.052Z,22.98
2024-01-12T10:40:08.915Z,22.02
2024-01-12T10:42:52.533Z,28.63
2024-01-12T10:45:37.451Z,22.92
2024-01-12T10:48:24.818Z,27.08
2024-01-12T10:54:01.652Z,18.02
2024-01-12T10:56:45.054Z,17.90
2024-01-12T10:59:29.076Z,19.08
2024-01-12T11:02:14.733Z,14.63
2024-01-12T11:05:00.118Z,15.63
2024-01-12T11:07:44.573Z,16.67
2024-01-12T11:10:28.938Z,16.40
2024-01-12T11:13:15.349Z,18.55
2024-01-12T11:15:58.289Z,17.85
2024-01-12T11:18:42.534Z,20.40
2024-01-12T11:21:26.682Z,23.98
2024-01-12T11:24:13.311Z,24.58
2024-01-12T11:26:56.300Z,26.55
2024-01-12T11:29:40.938Z,29.60
2024-01-12T11:32:23.349Z,30.50
2024-01-12T11:35:21.368Z,34.25
2024-01-12T11:38:08.419Z,32.72
2024-01-12T11:40:51.191Z,39.70
2024-01-12T11:43:33.523Z,45.22
2024-01-12T11:46:16.999Z,46.17
2024-01-12T11:48:59.888Z,45.63
2024-01-12T11:51:43.837Z,49.53
2024-01-12T11:54:26.188Z,48.75
2024-01-12T11:57:10.353Z,58.67
2024-01-12T11:59:58.395Z,61.55
2024-01-12T12:02:42.369Z,50.17
2024-01-12T12:05:27.353Z,60.45
2024-01-12T12:08:12.757Z,54.28
2024-01-12T12:10:57.380Z,62.08
2024-01-12T12:13:40.410Z,57.67
2024-01-12T12:16:22.817Z,60.78
2024-01-12T12:19:05.865Z,54.63
2024-01-12T12:21:48.273Z,51.35
2024-01-12T12:24:32.716Z,54.97
2024-01-12T12:27:18.601Z,53.53
2024-01-12T12:30:02.039Z,55.90
2024-01-12T12:32:46.734Z,56.30
2024-01-12T12:35:29.729Z,58.13
2024-01-12T12:38:12.363Z,53.08
2024-01-12T12:40:54.949Z,46.15
2024-01-12T12:43:39.298Z,46.35
2024-01-12T12:46:22.691Z,44.47
2024-01-12T12:49:05.834Z,44.60
2024-01-12T12:51:48.888Z,47.90
2024-01-12T12:54:32.521Z,47.28
2024-01-12T12:57:15.457Z,44.33
2024-01-12T12:59:58.673Z,46.20
2024-01-12T13:02:41.562Z,46.78
2024-01-12T13:05:24.391Z,42.72
2024-01-12T13:08:10.389Z,40.83
2024-01-12T13:10:54.002Z,48.87
2024-01-12T13:13:36.772Z,44.90
2024-01-12T13:16:19.162Z,45.30
2024-01-12T13:19:14.041Z,45.25
2024-01-12T13:22:01.054Z,47.53
2024-01-12T13:24:44.502Z,43.85
2024-01-12T13:27:28.237Z,47.45
2024-01-12T13:30:11.598Z,56.33
2024-01-12T13:32:54.404Z,48.75
2024-01-12T13:35:37.216Z,62.08
2024-01-12T13:38:19.513Z,51.90
2024-01-12T13:41:03.597Z,107.18
2024-01-12T13:43:46.142Z,125.15
2024-01-12T13:46:28.806Z,148.60
2024-01-12T13:49:11.597Z,298.02
2024-01-12T13:51:54.336Z,299.67
2024-01-12T13:54:36.617Z,148.45
2024-01-12T13:57:19.377Z,76.45
2024-01-12T14:00:02.189Z,71.07
2024-01-12T14:02:45.306Z,73.35
2024-01-12T14:05:28.916Z,75.64
2024-01-12T14:08:13.724Z,72.85
2024-01-12T14:10:56.372Z,60.55
2024-01-12T14:13:39.313Z,64.20
2024-01-12T14:16:21.668Z,64.13
2024-01-12T14:19:04.555Z,59.35
2024-01-12T14:21:47.134Z,72.68
2024-01-12T14:24:32.693Z,91.57
2024-01-12T14:27:16.557Z,85.85
2024-01-12T14:30:01.169Z,86.00
2024-01-12T14:32:44.250Z,77.72
2024-01-12T14:35:27.193Z,89.43
2024-01-12T14:38:09.961Z,75.60
2024-01-12T14:40:52.652Z,75.07
2024-01-12T14:43:35.063Z,96.65
2024-01-12T14:46:17.921Z,83.57
2024-01-12T14:49:00.804Z,81.57
2024-01-12T14:51:44.278Z,71.57
2024-01-12T14:54:26.631Z,63.97
2024-01-12T14:57:09.312Z,55.60
2024-01-12T14:59:52.036Z,69.07
2024-01-12T15:02:34.703Z,66.80
2024-01-12T15:05:17.210Z,57.88
2024-01-12T15:08:00.774Z,56.50
2024-01-12T15:10:43.337Z,58.40
2024-01-12T15:13:26.949Z,55.28
2024-01-12T15:16:09.937Z,46.83
2024-01-12T15:18:52.919Z,51.17
2024-01-12T15:21:35.453Z,49.00
2024-01-12T15:24:18.240Z,79.75
2024-01-12T15:27:01.039Z,47.55
2024-01-12T15:29:43.974Z,42.67
2024-01-12T15:32:26.927Z,50.28
2024-01-12T15:35:10.105Z,82.65
2024-01-12T15:37:52.845Z,76.60
2024-01-12T15:40:35.726Z,91.30
2024-01-12T15:43:18.108Z,52.47
2024-01-12T15:46:00.680Z,104.50
2024-01-12T15:48:43.392Z,48.40
2024-01-12T15:51:26.384Z,122.90
2024-01-12T15:54:09.114Z,60.00
2024-01-12T15:56:51.986Z,89.13
2024-01-12T15:59:34.487Z,82.45
2024-01-12T16:02:17.501Z,105.25
2024-01-12T16:04:59.916Z,94.78
2024-01-12T16:07:43.106Z,67.28
2024-01-12T16:10:25.441Z,85.47
2024-01-12T16:13:08.265Z,85.35
2024-01-12T16:15:51.647Z,68.20
2024-01-12T16:18:34.577Z,111.85
2024-01-12T16:21:35.588Z,82.35
2024-01-12T16:24:18.306Z,87.70
2024-01-12T16:27:00.640Z,69.78
2024-01-12T16:29:43.385Z,69.78
2024-01-12T16:32:25.805Z,70.57
2024-01-12T16:35:08.885Z,57.42
2024-01-12T16:37:51.363Z,67.70
2024-01-12T16:40:33.950Z,57.65
2024-01-12T16:43:16.424Z,53.53
2024-01-12T16:45:58.996Z,63.35
2024-01-12T16:48:42.864Z,62.65
2024-01-12T16:51:25.964Z,71.45
2024-01-12T16:54:08.430Z,66.13
2024-01-12T16:56:51.227Z,76.10
2024-01-12T16:59:33.512Z,67.18
2024-01-12T17:02:16.154Z,56.30
2024-01-12T17:04:58.562Z,49.20
2024-01-12T17:07:41.246Z,45.05
2024-01-12T17:10:23.829Z,40.95
2024-01-12T17:13:06.597Z,62.42
2024-01-12T17:15:49.009Z,43.25
2024-01-12T17:18:33.235Z,35.90
2024-01-12T17:21:25.281Z,39.75
2024-01-12T17:24:10.056Z,46.80
2024-01-12T17:26:52.574Z,40.38
2024-01-12T17:29:35.674Z,49.75
2024-01-12T17:32:17.951Z,48.75
2024-01-12T17:35:00.602Z,68.07
2024-01-12T17:37:43.283Z,71.93
2024-01-12T17:40:25.797Z,106.70
2024-01-12T17:43:08.023Z,65.05
2024-01-12T17:45:50.692Z,89.95
2024-01-12T17:48:34.530Z,53.78
2024-01-12T17:51:17.632Z,66.18
2024-01-12T17:54:00.037Z,88.30
2024-01-12T17:56:42.706Z,57.63
2024-01-12T17:59:25.101Z,115.68
2024-01-12T18:02:08.154Z,58.72
2024-01-12T18:04:51.603Z,65.43
2024-01-12T18:07:34.175Z,56.78
2024-01-12T18:10:17.375Z,66.07
2024-01-12T18:13:00.366Z,65.35
2024-01-12T18:15:45.837Z,57.47
2024-01-12T18:18:28.596Z,64.17
2024-01-12T18:21:10.939Z,69.57
2024-01-12T18:23:53.591Z,131.15
2024-01-12T18:26:35.843Z,58.92
2024-01-12T18:29:18.721Z,69.53
2024-01-12T18:32:01.137Z,51.03
2024-01-12T18:34:44.715Z,68.18
2024-01-12T18:37:27.160Z,61.25
2024-01-12T18:40:10.112Z,69.75
2024-01-12T18:42:52.519Z,61.65
2024-01-12T18:45:37.907Z,49.35
2024-01-12T18:48:20.344Z,58.50
2024-01-12T18:51:03.114Z,82.15
2024-01-12T18:53:45.559Z,60.38
2024-01-12T18:56:28.388Z,59.38
2024-01-12T18:59:10.774Z,54.30
2024-01-12T19:01:55.816Z,66.50
2024-01-12T19:04:38.448Z,49.90
2024-01-12T19:07:21.038Z,68.55
2024-01-12T19:10:03.340Z,46.63
2024-01-12T19:12:47.891Z,61.83
2024-01-12T19:15:30.379Z,54.05
2024-01-12T19:18:13.527Z,60.08
2024-01-12T19:20:55.980Z,57.85
2024-01-12T19:23:38.672Z,53.17
2024-01-12T19:26:21.291Z,61.03
2024-01-12T19:29:04.001Z,51.70
2024-01-12T19:31:46.550Z,64.75
2024-01-12T19:34:29.957Z,64.30
2024-01-12T19:37:12.702Z,83.60
2024-01-12T19:39:55.876Z,72.03
2024-01-12T19:42:38.222Z,54.45
2024-01-12T19:45:20.922Z,58.08
2024-01-12T19:48:03.388Z,67.70
2024-01-12T19:50:46.190Z,59.88
2024-01-12T19:53:28.469Z,67.60
2024-01-12T19:56:11.108Z,63.85
2024-01-12T19:58:56.362Z,61.80
2024-01-12T20:01:39.325Z,41.08
2024-01-12T20:04:33.197Z,66.55
2024-01-12T20:07:24.143Z,63.70
2024-01-12T20:10:08.319Z,72.75
2024-01-12T20:12:50.843Z,65.13
2024-01-12T20:15:33.221Z,69.60
2024-01-12T20:18:16.082Z,69.63
2024-01-12T20:20:58.629Z,70.95
2024-01-12T20:23:41.304Z,74.97
2024-01-12T20:26:28.619Z,71.68
2024-01-12T20:29:13.756Z,77.60
2024-01-12T20:31:57.058Z,73.63
2024-01-12T20:34:39.879Z,75.90
2024-01-12T20:37:22.277Z,67.68
2024-01-12T20:40:06.303Z,81.25
2024-01-12T20:42:48.623Z,70.70
2024-01-12T20:45:31.219Z,67.88
2024-01-12T20:48:13.719Z,63.47
2024-01-12T20:50:58.391Z,67.07
2024-01-12T20:53:48.407Z,62.58
2024-01-12T20:56:31.605Z,69.72
2024-01-12T20:59:15.055Z,68.03
2024-01-12T21:01:57.738Z,56.17
2024-01-12T21:04:40.164Z,85.07
2024-01-12T21:07:22.820Z,69.50
2024-01-12T21:10:05.906Z,64.22
2024-01-12T21:12:48.437Z,66.95
2024-01-12T21:15:32.473Z,58.45
2024-01-12T21:18:15.353Z,64.88
2024-01-12T21:20:58.030Z,59.53
2024-01-12T21:23:40.803Z,67.70
2024-01-12T21:26:23.718Z,61.65
2024-01-12T21:29:06.538Z,65.03
2024-01-12T21:31:49.158Z,59.67
2024-01-12T21:34:32.125Z,62.22
2024-01-12T21:37:14.828Z,104.18
2024-01-12T21:39:59.380Z,90.75
2024-01-12T21:42:41.966Z,63.08
2024-01-12T21:45:24.806Z,49.00
2024-01-12T21:48:07.975Z,56.22
2024-01-12T21:50:50.840Z,48.42
2024-01-12T21:53:33.583Z,60.35
2024-01-12T21:56:16.466Z,63.90
2024-01-12T21:58:58.766Z,57.42
2024-01-12T22:01:41.564Z,60.17
2024-01-12T22:04:24.154Z,53.25
2024-01-12T22:07:07.041Z,47.63
2024-01-12T22:09:49.350Z,79.10
2024-01-12T22:12:32.024Z,59.55
2024-01-12T22:15:14.637Z,52.55
2024-01-12T22:17:57.482Z,52.13
2024-01-12T22:20:39.860Z,56.78
2024-01-12T22:23:22.539Z,46.58
2024-01-12T22:26:05.273Z,42.90
2024-01-12T22:28:47.850Z,48.55
2024-01-12T22:31:30.108Z,48.38
2024-01-12T22:34:14.328Z,52.53
2024-01-12T22:36:56.709Z,47.70
2024-01-12T22:39:39.346Z,47.28
2024-01-12T22:42:21.652Z,43.15
2024-01-12T22:45:04.502Z,46.13
2024-01-12T22:47:47.065Z,42.17
2024-01-12T22:50:29.688Z,44.00
2024-01-12T22:53:12.098Z,42.08
2024-01-12T22:55:54.981Z,43.58
2024-01-12T22:58:37.320Z,42.47
2024-01-12T23:01:20.227Z,44.03
2024-01-12T23:04:03.191Z,39.13
2024-01-12T23:06:45.970Z,40.20
2024-01-12T23:09:28.250Z,35.60
2024-01-12T23:12:11.916Z,39.95
2024-01-12T23:14:55.119Z,34.15
2024-01-12T23:17:45.825Z,36.28
2024-01-12T23:20:28.299Z,40.05
2024-01-12T23:23:11.384Z,30.35
2024-01-12T23:25:53.836Z,30.02
2024-01-12T23:28:36.545Z,28.88
2024-01-12T23:31:20.619Z,31.77
2024-01-12T23:34:03.481Z,27.42
2024-01-12T23:36:46.541Z,25.05
2024-01-12T23:39:30.514Z,27.05
2024-01-12T23:42:12.834Z,30.73
2024-01-12T23:44:55.477Z,24.05
2024-01-12T23:47:37.912Z,25.00
2024-01-12T23:50:20.709Z,28.02
2024-01-12T23:53:03.164Z,22.75
2024-01-12T23:55:45.857Z,27.45
2024-01-12T23:58:34.473Z,25.05
